Terminal Aerodrome Forecast
Issued by NWS

Home | Current Version | Previous Version | Text Only | Print | Product List | Glossary On
Versions: 1 2 3 4 5 6 7 8 9 10 11 12 13 14 15 16 17 18 19 20 21 22 23 24 25 26 27
000
FTUS43 KDTX 182320
TAFYIP
TAF
KYIP 182320Z 1900/1924 04011G20KT P6SM BKN240
     FM190100 05008KT P6SM BKN200
     FM191500 09014KT P6SM BKN070
     FM192000 10015KT 5SM -RA OVC030=

USA.gov is the U.S. government's official web portal to all federal, state and local government web resources and services.